sensor_id;sensor_type;location;lat;lon;timestamp;P1;durP1;ratioP1;P2;durP2;ratioP2
45392;SDS011;31129;44.810;10.334;2022-09-09T00:00:38;20.65;;;11.93;;
45392;SDS011;31129;44.810;10.334;2022-09-09T00:03:12;19.45;;;11.85;;
45392;SDS011;31129;44.810;10.334;2022-09-09T00:08:13;18.77;;;11.35;;
45392;SDS011;31129;44.810;10.334;2022-09-09T00:10:44;17.65;;;10.90;;
45392;SDS011;31129;44.810;10.334;2022-09-09T00:13:20;22.35;;;12.00;;
45392;SDS011;31129;44.810;10.334;2022-09-09T00:21:47;24.60;;;10.73;;
45392;SDS011;31129;44.810;10.334;2022-09-09T00:24:26;17.42;;;10.68;;
45392;SDS011;31129;44.810;10.334;2022-09-09T00:27:04;14.73;;;9.43;;
45392;SDS011;31129;44.810;10.334;2022-09-09T00:32:16;15.02;;;10.27;;
45392;SDS011;31129;44.810;10.334;2022-09-09T00:34:48;24.40;;;10.00;;
45392;SDS011;31129;44.810;10.334;2022-09-09T00:37:16;16.13;;;9.70;;
45392;SDS011;31129;44.810;10.334;2022-09-09T00:39:46;18.90;;;9.80;;
45392;SDS011;31129;44.810;10.334;2022-09-09T00:42:17;15.32;;;9.75;;
45392;SDS011;31129;44.810;10.334;2022-09-09T00:47:50;21.23;;;10.65;;
45392;SDS011;31129;44.810;10.334;2022-09-09T00:50:28;16.77;;;10.50;;
45392;SDS011;31129;44.810;10.334;2022-09-09T00:58:36;16.23;;;10.30;;
45392;SDS011;31129;44.810;10.334;2022-09-09T01:01:06;19.40;;;11.38;;
45392;SDS011;31129;44.810;10.334;2022-09-09T01:03:36;21.48;;;11.57;;
45392;SDS011;31129;44.810;10.334;2022-09-09T01:17:00;16.10;;;10.45;;
45392;SDS011;31129;44.810;10.334;2022-09-09T01:19:45;14.77;;;10.60;;
45392;SDS011;31129;44.810;10.334;2022-09-09T01:28:00;16.42;;;9.88;;
45392;SDS011;31129;44.810;10.334;2022-09-09T01:30:34;19.17;;;9.40;;
45392;SDS011;31129;44.810;10.334;2022-09-09T01:33:01;11.35;;;8.50;;
45392;SDS011;31129;44.810;10.334;2022-09-09T01:37:58;14.27;;;9.70;;
45392;SDS011;31129;44.810;10.334;2022-09-09T01:40:25;10.93;;;8.98;;
45392;SDS011;31129;44.810;10.334;2022-09-09T01:42:52;20.20;;;9.10;;
45392;SDS011;31129;44.810;10.334;2022-09-09T01:45:18;14.55;;;9.00;;
45392;SDS011;31129;44.810;10.334;2022-09-09T01:47:44;10.07;;;8.05;;
45392;SDS011;31129;44.810;10.334;2022-09-09T01:50:24;12.77;;;7.65;;
45392;SDS011;31129;44.810;10.334;2022-09-09T01:52:50;14.82;;;7.32;;
45392;SDS011;31129;44.810;10.334;2022-09-09T01:55:24;16.13;;;6.70;;
45392;SDS011;31129;44.810;10.334;2022-09-09T02:00:56;14.52;;;6.22;;
45392;SDS011;31129;44.810;10.334;2022-09-09T02:03:29;17.17;;;5.97;;
45392;SDS011;31129;44.810;10.334;2022-09-09T02:09:03;9.48;;;4.97;;
45392;SDS011;31129;44.810;10.334;2022-09-09T02:11:31;11.13;;;5.07;;
45392;SDS011;31129;44.810;10.334;2022-09-09T02:14:16;11.13;;;4.35;;
45392;SDS011;31129;44.810;10.334;2022-09-09T02:16:48;7.03;;;4.60;;
45392;SDS011;31129;44.810;10.334;2022-09-09T02:19:22;11.38;;;4.30;;
45392;SDS011;31129;44.810;10.334;2022-09-09T02:22:17;11.77;;;4.63;;
45392;SDS011;31129;44.810;10.334;2022-09-09T02:24:47;11.27;;;4.78;;
45392;SDS011;31129;44.810;10.334;2022-09-09T02:27:18;11.38;;;3.90;;
45392;SDS011;31129;44.810;10.334;2022-09-09T02:29:46;13.40;;;4.18;;
45392;SDS011;31129;44.810;10.334;2022-09-09T02:32:18;7.38;;;3.60;;
45392;SDS011;31129;44.810;10.334;2022-09-09T02:34:55;6.10;;;3.05;;
45392;SDS011;31129;44.810;10.334;2022-09-09T02:37:26;6.47;;;3.03;;
45392;SDS011;31129;44.810;10.334;2022-09-09T02:39:57;9.40;;;2.85;;
45392;SDS011;31129;44.810;10.334;2022-09-09T02:42:23;13.98;;;3.60;;
45392;SDS011;31129;44.810;10.334;2022-09-09T02:47:20;8.25;;;3.03;;
45392;SDS011;31129;44.810;10.334;2022-09-09T02:55:46;3.72;;;2.58;;
45392;SDS011;31129;44.810;10.334;2022-09-09T02:58:21;12.50;;;3.20;;
45392;SDS011;31129;44.810;10.334;2022-09-09T03:01:02;8.05;;;3.28;;
45392;SDS011;31129;44.810;10.334;2022-09-09T03:03:29;14.03;;;4.03;;
45392;SDS011;31129;44.810;10.334;2022-09-09T03:05:55;10.43;;;2.70;;
45392;SDS011;31129;44.810;10.334;2022-09-09T03:08:22;7.10;;;2.97;;
45392;SDS011;31129;44.810;10.334;2022-09-09T03:10:47;7.05;;;2.90;;
45392;SDS011;31129;44.810;10.334;2022-09-09T03:13:17;4.55;;;2.83;;
45392;SDS011;31129;44.810;10.334;2022-09-09T03:15:44;4.57;;;2.30;;
45392;SDS011;31129;44.810;10.334;2022-09-09T03:18:14;5.80;;;2.38;;
45392;SDS011;31129;44.810;10.334;2022-09-09T03:20:40;9.57;;;2.80;;
45392;SDS011;31129;44.810;10.334;2022-09-09T03:23:07;6.18;;;2.30;;
45392;SDS011;31129;44.810;10.334;2022-09-09T03:25:33;5.57;;;2.17;;
45392;SDS011;31129;44.810;10.334;2022-09-09T03:27:59;4.30;;;1.92;;
45392;SDS011;31129;44.810;10.334;2022-09-09T03:30:25;5.47;;;1.85;;
45392;SDS011;31129;44.810;10.334;2022-09-09T03:32:54;5.70;;;1.80;;
45392;SDS011;31129;44.810;10.334;2022-09-09T03:35:24;6.38;;;1.63;;
45392;SDS011;31129;44.810;10.334;2022-09-09T03:37:50;6.70;;;1.83;;
45392;SDS011;31129;44.810;10.334;2022-09-09T03:40:16;4.75;;;1.65;;
45392;SDS011;31129;44.810;10.334;2022-09-09T03:42:44;4.15;;;1.58;;
45392;SDS011;31129;44.810;10.334;2022-09-09T03:45:09;6.28;;;2.05;;
45392;SDS011;31129;44.810;10.334;2022-09-09T03:47:39;7.80;;;2.30;;
45392;SDS011;31129;44.810;10.334;2022-09-09T03:50:06;8.88;;;2.10;;
45392;SDS011;31129;44.810;10.334;2022-09-09T03:52:38;6.85;;;1.98;;
45392;SDS011;31129;44.810;10.334;2022-09-09T03:55:10;2.97;;;1.58;;
45392;SDS011;31129;44.810;10.334;2022-09-09T03:57:36;8.88;;;1.98;;
45392;SDS011;31129;44.810;10.334;2022-09-09T04:00:05;8.13;;;1.90;;
45392;SDS011;31129;44.810;10.334;2022-09-09T04:02:41;8.87;;;2.73;;
45392;SDS011;31129;44.810;10.334;2022-09-09T04:07:36;3.78;;;1.67;;
45392;SDS011;31129;44.810;10.334;2022-09-09T04:10:01;10.27;;;1.85;;
45392;SDS011;31129;44.810;10.334;2022-09-09T04:12:28;6.45;;;2.25;;
45392;SDS011;31129;44.810;10.334;2022-09-09T04:14:54;5.28;;;2.00;;
45392;SDS011;31129;44.810;10.334;2022-09-09T04:17:19;7.68;;;2.03;;
45392;SDS011;31129;44.810;10.334;2022-09-09T04:19:45;10.13;;;1.90;;
45392;SDS011;31129;44.810;10.334;2022-09-09T04:22:11;6.30;;;1.85;;
45392;SDS011;31129;44.810;10.334;2022-09-09T04:24:37;10.73;;;2.10;;
45392;SDS011;31129;44.810;10.334;2022-09-09T04:27:03;3.58;;;1.30;;
45392;SDS011;31129;44.810;10.334;2022-09-09T04:29:33;6.45;;;1.50;;
45392;SDS011;31129;44.810;10.334;2022-09-09T04:31:59;5.28;;;1.70;;
45392;SDS011;31129;44.810;10.334;2022-09-09T04:34:24;3.90;;;1.50;;
45392;SDS011;31129;44.810;10.334;2022-09-09T04:36:52;6.00;;;1.73;;
45392;SDS011;31129;44.810;10.334;2022-09-09T04:39:17;11.63;;;1.80;;
45392;SDS011;31129;44.810;10.334;2022-09-09T04:41:44;11.07;;;1.88;;
45392;SDS011;31129;44.810;10.334;2022-09-09T04:44:10;5.32;;;1.75;;
45392;SDS011;31129;44.810;10.334;2022-09-09T04:46:35;3.58;;;1.45;;
45392;SDS011;31129;44.810;10.334;2022-09-09T04:49:01;9.82;;;1.85;;
45392;SDS011;31129;44.810;10.334;2022-09-09T04:51:29;2.70;;;1.40;;
45392;SDS011;31129;44.810;10.334;2022-09-09T04:53:56;10.80;;;1.58;;
45392;SDS011;31129;44.810;10.334;2022-09-09T04:56:22;17.00;;;1.90;;
45392;SDS011;31129;44.810;10.334;2022-09-09T04:58:52;10.98;;;2.10;;
45392;SDS011;31129;44.810;10.334;2022-09-09T05:01:21;8.45;;;1.90;;
45392;SDS011;31129;44.810;10.334;2022-09-09T05:03:50;4.13;;;1.77;;
45392;SDS011;31129;44.810;10.334;2022-09-09T05:06:20;6.13;;;2.28;;
45392;SDS011;31129;44.810;10.334;2022-09-09T05:08:49;6.22;;;2.00;;
45392;SDS011;31129;44.810;10.334;2022-09-09T05:13:50;5.75;;;1.58;;
45392;SDS011;31129;44.810;10.334;2022-09-09T05:16:17;6.25;;;1.40;;
45392;SDS011;31129;44.810;10.334;2022-09-09T05:18:44;9.43;;;2.13;;
45392;SDS011;31129;44.810;10.334;2022-09-09T05:21:16;6.97;;;1.88;;
45392;SDS011;31129;44.810;10.334;2022-09-09T05:23:44;7.57;;;1.95;;
45392;SDS011;31129;44.810;10.334;2022-09-09T05:26:14;7.32;;;2.10;;
45392;SDS011;31129;44.810;10.334;2022-09-09T05:28:42;7.38;;;2.33;;
45392;SDS011;31129;44.810;10.334;2022-09-09T05:31:08;8.88;;;1.77;;
45392;SDS011;31129;44.810;10.334;2022-09-09T05:33:39;9.77;;;1.70;;
45392;SDS011;31129;44.810;10.334;2022-09-09T05:36:07;4.57;;;1.70;;
45392;SDS011;31129;44.810;10.334;2022-09-09T05:40:59;6.82;;;1.65;;
45392;SDS011;31129;44.810;10.334;2022-09-09T05:43:26;8.35;;;2.13;;
45392;SDS011;31129;44.810;10.334;2022-09-09T05:46:05;6.85;;;1.70;;
45392;SDS011;31129;44.810;10.334;2022-09-09T05:48:34;6.65;;;1.67;;
45392;SDS011;31129;44.810;10.334;2022-09-09T05:51:22;9.13;;;1.90;;
45392;SDS011;31129;44.810;10.334;2022-09-09T05:53:50;11.82;;;2.20;;
45392;SDS011;31129;44.810;10.334;2022-09-09T05:56:18;7.65;;;2.25;;
45392;SDS011;31129;44.810;10.334;2022-09-09T05:58:50;5.50;;;2.05;;
45392;SDS011;31129;44.810;10.334;2022-09-09T06:01:19;5.60;;;2.70;;
45392;SDS011;31129;44.810;10.334;2022-09-09T06:03:46;9.55;;;3.20;;
45392;SDS011;31129;44.810;10.334;2022-09-09T06:06:14;12.32;;;2.45;;
45392;SDS011;31129;44.810;10.334;2022-09-09T06:08:53;11.00;;;2.42;;
45392;SDS011;31129;44.810;10.334;2022-09-09T06:11:23;9.00;;;3.13;;
45392;SDS011;31129;44.810;10.334;2022-09-09T06:13:51;11.57;;;3.78;;
45392;SDS011;31129;44.810;10.334;2022-09-09T06:16:22;15.95;;;3.10;;
45392;SDS011;31129;44.810;10.334;2022-09-09T06:18:50;9.55;;;3.03;;
45392;SDS011;31129;44.810;10.334;2022-09-09T06:21:17;9.60;;;3.50;;
45392;SDS011;31129;44.810;10.334;2022-09-09T06:23:45;10.48;;;3.33;;
45392;SDS011;31129;44.810;10.334;2022-09-09T06:26:16;10.75;;;3.08;;
45392;SDS011;31129;44.810;10.334;2022-09-09T06:28:48;9.60;;;2.78;;
45392;SDS011;31129;44.810;10.334;2022-09-09T06:31:15;7.50;;;2.70;;
45392;SDS011;31129;44.810;10.334;2022-09-09T06:33:48;7.00;;;2.72;;
45392;SDS011;31129;44.810;10.334;2022-09-09T06:36:16;14.10;;;2.85;;
45392;SDS011;31129;44.810;10.334;2022-09-09T06:38:45;7.55;;;2.80;;
45392;SDS011;31129;44.810;10.334;2022-09-09T06:41:13;9.68;;;3.05;;
45392;SDS011;31129;44.810;10.334;2022-09-09T06:43:41;11.48;;;2.63;;
45392;SDS011;31129;44.810;10.334;2022-09-09T06:48:41;6.80;;;2.70;;
45392;SDS011;31129;44.810;10.334;2022-09-09T06:51:10;8.32;;;2.92;;
45392;SDS011;31129;44.810;10.334;2022-09-09T06:53:38;15.68;;;8.15;;
45392;SDS011;31129;44.810;10.334;2022-09-09T06:58:37;11.63;;;4.07;;
45392;SDS011;31129;44.810;10.334;2022-09-09T07:01:11;9.65;;;3.83;;
45392;SDS011;31129;44.810;10.334;2022-09-09T07:03:39;19.95;;;4.13;;
45392;SDS011;31129;44.810;10.334;2022-09-09T07:06:05;14.63;;;5.13;;
45392;SDS011;31129;44.810;10.334;2022-09-09T07:08:32;10.55;;;5.07;;
45392;SDS011;31129;44.810;10.334;2022-09-09T07:11:05;18.92;;;8.90;;
45392;SDS011;31129;44.810;10.334;2022-09-09T07:13:34;22.27;;;9.43;;
45392;SDS011;31129;44.810;10.334;2022-09-09T07:16:10;30.30;;;14.65;;
45392;SDS011;31129;44.810;10.334;2022-09-09T07:18:38;25.50;;;14.70;;
45392;SDS011;31129;44.810;10.334;2022-09-09T07:21:05;20.17;;;11.63;;
45392;SDS011;31129;44.810;10.334;2022-09-09T07:23:31;22.70;;;12.63;;
45392;SDS011;31129;44.810;10.334;2022-09-09T07:25:58;24.48;;;14.90;;
45392;SDS011;31129;44.810;10.334;2022-09-09T07:28:25;30.50;;;15.38;;
45392;SDS011;31129;44.810;10.334;2022-09-09T07:30:56;23.30;;;13.95;;
45392;SDS011;31129;44.810;10.334;2022-09-09T07:33:26;31.40;;;17.02;;
45392;SDS011;31129;44.810;10.334;2022-09-09T07:35:52;21.73;;;13.18;;
45392;SDS011;31129;44.810;10.334;2022-09-09T07:38:21;28.35;;;14.98;;
45392;SDS011;31129;44.810;10.334;2022-09-09T07:40:48;22.92;;;14.75;;
45392;SDS011;31129;44.810;10.334;2022-09-09T07:43:13;21.83;;;12.07;;
45392;SDS011;31129;44.810;10.334;2022-09-09T07:45:39;20.00;;;12.77;;
45392;SDS011;31129;44.810;10.334;2022-09-09T07:48:05;20.50;;;11.93;;
45392;SDS011;31129;44.810;10.334;2022-09-09T07:50:31;21.58;;;13.30;;
45392;SDS011;31129;44.810;10.334;2022-09-09T07:52:56;20.42;;;12.48;;
45392;SDS011;31129;44.810;10.334;2022-09-09T07:55:23;21.00;;;14.05;;
45392;SDS011;31129;44.810;10.334;2022-09-09T07:57:51;17.70;;;13.37;;
45392;SDS011;31129;44.810;10.334;2022-09-09T08:00:18;22.83;;;14.13;;
45392;SDS011;31129;44.810;10.334;2022-09-09T08:02:49;25.35;;;16.63;;
45392;SDS011;31129;44.810;10.334;2022-09-09T08:05:15;24.10;;;13.50;;
45392;SDS011;31129;44.810;10.334;2022-09-09T08:07:43;24.83;;;13.73;;
45392;SDS011;31129;44.810;10.334;2022-09-09T08:10:09;20.08;;;13.02;;
45392;SDS011;31129;44.810;10.334;2022-09-09T08:12:37;23.77;;;13.10;;
45392;SDS011;31129;44.810;10.334;2022-09-09T08:15:02;22.85;;;13.48;;
45392;SDS011;31129;44.810;10.334;2022-09-09T08:17:31;26.52;;;15.02;;
45392;SDS011;31129;44.810;10.334;2022-09-09T08:20:01;29.33;;;17.40;;
45392;SDS011;31129;44.810;10.334;2022-09-09T08:22:31;26.67;;;15.45;;
45392;SDS011;31129;44.810;10.334;2022-09-09T08:24:56;28.63;;;17.02;;
45392;SDS011;31129;44.810;10.334;2022-09-09T08:27:22;33.90;;;20.70;;
45392;SDS011;31129;44.810;10.334;2022-09-09T08:29:49;32.83;;;18.27;;
45392;SDS011;31129;44.810;10.334;2022-09-09T08:32:16;38.80;;;21.08;;
45392;SDS011;31129;44.810;10.334;2022-09-09T08:34:43;39.58;;;20.27;;
45392;SDS011;31129;44.810;10.334;2022-09-09T08:37:14;41.25;;;20.60;;
45392;SDS011;31129;44.810;10.334;2022-09-09T08:39:40;29.30;;;17.05;;
45392;SDS011;31129;44.810;10.334;2022-09-09T08:50:19;39.00;;;20.73;;
45392;SDS011;31129;44.810;10.334;2022-09-09T08:53:04;42.53;;;21.70;;
45392;SDS011;31129;44.810;10.334;2022-09-09T08:58:19;39.08;;;21.33;;
45392;SDS011;31129;44.810;10.334;2022-09-09T09:03:35;33.88;;;20.52;;
45392;SDS011;31129;44.810;10.334;2022-09-09T09:11:35;43.67;;;20.73;;
45392;SDS011;31129;44.810;10.334;2022-09-09T09:16:38;47.15;;;23.48;;
45392;SDS011;31129;44.810;10.334;2022-09-09T09:19:12;32.42;;;19.10;;
45392;SDS011;31129;44.810;10.334;2022-09-09T09:21:45;34.00;;;16.38;;
45392;SDS011;31129;44.810;10.334;2022-09-09T09:24:18;41.55;;;20.50;;
45392;SDS011;31129;44.810;10.334;2022-09-09T09:26:46;34.10;;;17.70;;
45392;SDS011;31129;44.810;10.334;2022-09-09T09:29:14;41.78;;;19.02;;
45392;SDS011;31129;44.810;10.334;2022-09-09T09:31:43;28.55;;;15.27;;
45392;SDS011;31129;44.810;10.334;2022-09-09T09:34:20;35.22;;;18.48;;
45392;SDS011;31129;44.810;10.334;2022-09-09T09:36:54;38.63;;;19.88;;
45392;SDS011;31129;44.810;10.334;2022-09-09T09:39:26;30.67;;;14.43;;
45392;SDS011;31129;44.810;10.334;2022-09-09T09:41:57;28.75;;;15.23;;
45392;SDS011;31129;44.810;10.334;2022-09-09T09:44:24;30.42;;;17.70;;
45392;SDS011;31129;44.810;10.334;2022-09-09T09:47:07;29.17;;;13.63;;
45392;SDS011;31129;44.810;10.334;2022-09-09T09:49:34;22.65;;;12.07;;
45392;SDS011;31129;44.810;10.334;2022-09-09T09:52:01;24.40;;;11.85;;
45392;SDS011;31129;44.810;10.334;2022-09-09T09:54:28;31.45;;;13.35;;
45392;SDS011;31129;44.810;10.334;2022-09-09T09:57:14;27.10;;;12.93;;
45392;SDS011;31129;44.810;10.334;2022-09-09T09:59:43;21.08;;;12.75;;
45392;SDS011;31129;44.810;10.334;2022-09-09T10:02:20;20.50;;;11.20;;
45392;SDS011;31129;44.810;10.334;2022-09-09T10:05:05;21.67;;;12.27;;
45392;SDS011;31129;44.810;10.334;2022-09-09T10:07:44;25.52;;;13.73;;
45392;SDS011;31129;44.810;10.334;2022-09-09T10:10:13;22.08;;;13.68;;
45392;SDS011;31129;44.810;10.334;2022-09-09T10:13:15;30.70;;;16.25;;
45392;SDS011;31129;44.810;10.334;2022-09-09T10:21:14;29.48;;;19.77;;
45392;SDS011;31129;44.810;10.334;2022-09-09T10:23:55;33.00;;;19.17;;
45392;SDS011;31129;44.810;10.334;2022-09-09T10:29:03;30.05;;;17.95;;
45392;SDS011;31129;44.810;10.334;2022-09-09T10:37:00;24.45;;;14.23;;
45392;SDS011;31129;44.810;10.334;2022-09-09T10:42:14;23.02;;;10.95;;
45392;SDS011;31129;44.810;10.334;2022-09-09T10:49:59;23.90;;;11.32;;
45392;SDS011;31129;44.810;10.334;2022-09-09T10:52:43;18.15;;;8.65;;
45392;SDS011;31129;44.810;10.334;2022-09-09T10:55:35;16.00;;;8.52;;
45392;SDS011;31129;44.810;10.334;2022-09-09T10:58:12;19.80;;;8.13;;
45392;SDS011;31129;44.810;10.334;2022-09-09T11:00:48;19.85;;;7.68;;
45392;SDS011;31129;44.810;10.334;2022-09-09T11:03:27;12.40;;;7.30;;
45392;SDS011;31129;44.810;10.334;2022-09-09T11:06:00;21.70;;;7.40;;
45392;SDS011;31129;44.810;10.334;2022-09-09T11:08:30;16.13;;;6.95;;
45392;SDS011;31129;44.810;10.334;2022-09-09T11:11:04;11.65;;;5.35;;
45392;SDS011;31129;44.810;10.334;2022-09-09T11:13:54;10.10;;;5.47;;
45392;SDS011;31129;44.810;10.334;2022-09-09T11:16:45;17.63;;;6.70;;
45392;SDS011;31129;44.810;10.334;2022-09-09T11:19:33;16.33;;;6.30;;
45392;SDS011;31129;44.810;10.334;2022-09-09T11:22:01;11.45;;;4.38;;
45392;SDS011;31129;44.810;10.334;2022-09-09T11:24:35;12.02;;;4.55;;
45392;SDS011;31129;44.810;10.334;2022-09-09T11:41:04;9.02;;;4.22;;
45392;SDS011;31129;44.810;10.334;2022-09-09T11:43:33;10.27;;;4.28;;
45392;SDS011;31129;44.810;10.334;2022-09-09T11:46:04;8.10;;;3.40;;
45392;SDS011;31129;44.810;10.334;2022-09-09T11:53:34;7.28;;;3.53;;
45392;SDS011;31129;44.810;10.334;2022-09-09T11:56:42;7.18;;;3.70;;
45392;SDS011;31129;44.810;10.334;2022-09-09T11:59:20;9.73;;;3.35;;
45392;SDS011;31129;44.810;10.334;2022-09-09T12:12:31;5.60;;;2.47;;
45392;SDS011;31129;44.810;10.334;2022-09-09T12:17:52;11.52;;;2.90;;
45392;SDS011;31129;44.810;10.334;2022-09-09T12:20:20;12.15;;;2.72;;
45392;SDS011;31129;44.810;10.334;2022-09-09T12:25:57;10.45;;;2.63;;
45392;SDS011;31129;44.810;10.334;2022-09-09T12:28:50;7.07;;;3.17;;
45392;SDS011;31129;44.810;10.334;2022-09-09T12:34:20;10.63;;;2.60;;
45392;SDS011;31129;44.810;10.334;2022-09-09T12:37:04;7.22;;;2.22;;
45392;SDS011;31129;44.810;10.334;2022-09-09T12:39:43;6.35;;;2.50;;
45392;SDS011;31129;44.810;10.334;2022-09-09T12:42:19;4.50;;;2.05;;
45392;SDS011;31129;44.810;10.334;2022-09-09T12:44:53;10.48;;;1.95;;
45392;SDS011;31129;44.810;10.334;2022-09-09T12:47:29;7.72;;;2.05;;
45392;SDS011;31129;44.810;10.334;2022-09-09T12:50:03;4.82;;;2.67;;
45392;SDS011;31129;44.810;10.334;2022-09-09T12:52:33;6.53;;;1.90;;
45392;SDS011;31129;44.810;10.334;2022-09-09T12:55:03;12.35;;;2.15;;
45392;SDS011;31129;44.810;10.334;2022-09-09T12:57:34;8.18;;;1.95;;
45392;SDS011;31129;44.810;10.334;2022-09-09T13:00:11;6.25;;;2.00;;
45392;SDS011;31129;44.810;10.334;2022-09-09T13:02:52;11.13;;;2.17;;
45392;SDS011;31129;44.810;10.334;2022-09-09T13:07:49;8.38;;;2.53;;
45392;SDS011;31129;44.810;10.334;2022-09-09T13:10:21;7.25;;;1.90;;
45392;SDS011;31129;44.810;10.334;2022-09-09T13:12:51;5.82;;;1.65;;
45392;SDS011;31129;44.810;10.334;2022-09-09T13:15:22;8.90;;;1.85;;
45392;SDS011;31129;44.810;10.334;2022-09-09T13:17:58;6.28;;;1.92;;
45392;SDS011;31129;44.810;10.334;2022-09-09T13:20:33;10.10;;;1.58;;
45392;SDS011;31129;44.810;10.334;2022-09-09T13:22:59;7.80;;;2.42;;
45392;SDS011;31129;44.810;10.334;2022-09-09T13:25:28;6.43;;;1.92;;
45392;SDS011;31129;44.810;10.334;2022-09-09T13:27:58;6.57;;;1.95;;
45392;SDS011;31129;44.810;10.334;2022-09-09T13:30:28;5.88;;;1.67;;
45392;SDS011;31129;44.810;10.334;2022-09-09T13:33:03;5.80;;;1.60;;
45392;SDS011;31129;44.810;10.334;2022-09-09T13:35:54;6.43;;;1.45;;
45392;SDS011;31129;44.810;10.334;2022-09-09T13:38:21;5.15;;;1.52;;
45392;SDS011;31129;44.810;10.334;2022-09-09T13:40:57;6.00;;;1.60;;
45392;SDS011;31129;44.810;10.334;2022-09-09T13:43:27;6.38;;;1.50;;
45392;SDS011;31129;44.810;10.334;2022-09-09T13:45:55;9.30;;;1.63;;
45392;SDS011;31129;44.810;10.334;2022-09-09T13:48:25;2.90;;;1.58;;
45392;SDS011;31129;44.810;10.334;2022-09-09T13:50:54;4.95;;;1.80;;
45392;SDS011;31129;44.810;10.334;2022-09-09T13:53:22;5.65;;;1.70;;
45392;SDS011;31129;44.810;10.334;2022-09-09T13:55:47;4.25;;;1.38;;
45392;SDS011;31129;44.810;10.334;2022-09-09T13:58:16;5.78;;;1.58;;
45392;SDS011;31129;44.810;10.334;2022-09-09T14:00:46;8.05;;;1.65;;
45392;SDS011;31129;44.810;10.334;2022-09-09T14:03:12;11.63;;;2.40;;
45392;SDS011;31129;44.810;10.334;2022-09-09T14:05:38;4.43;;;1.38;;
45392;SDS011;31129;44.810;10.334;2022-09-09T14:08:05;7.57;;;1.85;;
45392;SDS011;31129;44.810;10.334;2022-09-09T14:10:36;4.22;;;1.67;;
45392;SDS011;31129;44.810;10.334;2022-09-09T14:13:02;9.68;;;1.63;;
45392;SDS011;31129;44.810;10.334;2022-09-09T14:15:28;5.30;;;1.63;;
45392;SDS011;31129;44.810;10.334;2022-09-09T14:17:54;5.97;;;1.42;;
45392;SDS011;31129;44.810;10.334;2022-09-09T14:20:19;5.53;;;1.73;;
45392;SDS011;31129;44.810;10.334;2022-09-09T14:22:45;6.15;;;1.50;;
45392;SDS011;31129;44.810;10.334;2022-09-09T14:25:11;15.13;;;1.88;;
45392;SDS011;31129;44.810;10.334;2022-09-09T14:27:39;7.22;;;1.65;;
45392;SDS011;31129;44.810;10.334;2022-09-09T14:30:06;5.40;;;2.00;;
45392;SDS011;31129;44.810;10.334;2022-09-09T14:32:32;5.43;;;1.92;;
45392;SDS011;31129;44.810;10.334;2022-09-09T14:34:58;12.90;;;2.78;;
45392;SDS011;31129;44.810;10.334;2022-09-09T14:37:23;6.30;;;1.90;;
45392;SDS011;31129;44.810;10.334;2022-09-09T14:39:49;6.68;;;1.83;;
45392;SDS011;31129;44.810;10.334;2022-09-09T14:42:15;8.02;;;1.65;;
45392;SDS011;31129;44.810;10.334;2022-09-09T14:44:41;8.20;;;1.83;;
45392;SDS011;31129;44.810;10.334;2022-09-09T14:47:10;9.90;;;2.65;;
45392;SDS011;31129;44.810;10.334;2022-09-09T14:49:35;6.57;;;1.50;;
45392;SDS011;31129;44.810;10.334;2022-09-09T14:52:02;7.10;;;2.00;;
45392;SDS011;31129;44.810;10.334;2022-09-09T14:54:29;7.70;;;1.73;;
45392;SDS011;31129;44.810;10.334;2022-09-09T14:56:55;6.18;;;1.70;;
45392;SDS011;31129;44.810;10.334;2022-09-09T14:59:21;5.35;;;1.67;;
45392;SDS011;31129;44.810;10.334;2022-09-09T15:01:47;7.95;;;1.65;;
45392;SDS011;31129;44.810;10.334;2022-09-09T15:04:12;5.75;;;1.75;;
45392;SDS011;31129;44.810;10.334;2022-09-09T15:06:45;9.57;;;1.77;;
45392;SDS011;31129;44.810;10.334;2022-09-09T15:09:15;8.98;;;1.63;;
45392;SDS011;31129;44.810;10.334;2022-09-09T15:11:40;11.13;;;1.83;;
45392;SDS011;31129;44.810;10.334;2022-09-09T15:14:07;6.93;;;1.70;;
45392;SDS011;31129;44.810;10.334;2022-09-09T15:16:34;6.78;;;1.40;;
45392;SDS011;31129;44.810;10.334;2022-09-09T15:19:00;5.68;;;1.65;;
45392;SDS011;31129;44.810;10.334;2022-09-09T15:21:27;4.97;;;1.60;;
45392;SDS011;31129;44.810;10.334;2022-09-09T15:23:54;8.77;;;1.70;;
45392;SDS011;31129;44.810;10.334;2022-09-09T15:26:20;5.50;;;1.92;;
45392;SDS011;31129;44.810;10.334;2022-09-09T15:28:46;8.05;;;1.58;;
45392;SDS011;31129;44.810;10.334;2022-09-09T15:31:13;3.33;;;1.38;;
45392;SDS011;31129;44.810;10.334;2022-09-09T15:33:46;12.38;;;1.95;;
45392;SDS011;31129;44.810;10.334;2022-09-09T15:36:20;6.32;;;1.42;;
45392;SDS011;31129;44.810;10.334;2022-09-09T15:38:47;6.93;;;1.60;;
45392;SDS011;31129;44.810;10.334;2022-09-09T15:41:13;7.82;;;1.70;;
45392;SDS011;31129;44.810;10.334;2022-09-09T15:43:42;12.20;;;1.70;;
45392;SDS011;31129;44.810;10.334;2022-09-09T15:48:49;6.22;;;1.60;;
45392;SDS011;31129;44.810;10.334;2022-09-09T15:51:18;11.35;;;2.03;;
45392;SDS011;31129;44.810;10.334;2022-09-09T15:53:44;7.82;;;2.17;;
45392;SDS011;31129;44.810;10.334;2022-09-09T15:56:10;12.52;;;1.98;;
45392;SDS011;31129;44.810;10.334;2022-09-09T15:58:35;8.73;;;2.38;;
45392;SDS011;31129;44.810;10.334;2022-09-09T16:01:05;6.82;;;1.90;;
45392;SDS011;31129;44.810;10.334;2022-09-09T16:03:42;5.15;;;1.52;;
45392;SDS011;31129;44.810;10.334;2022-09-09T16:06:13;9.05;;;1.55;;
45392;SDS011;31129;44.810;10.334;2022-09-09T16:08:40;6.20;;;1.60;;
45392;SDS011;31129;44.810;10.334;2022-09-09T16:11:09;7.38;;;1.88;;
45392;SDS011;31129;44.810;10.334;2022-09-09T16:13:40;6.18;;;1.77;;
45392;SDS011;31129;44.810;10.334;2022-09-09T16:16:07;6.82;;;1.77;;
45392;SDS011;31129;44.810;10.334;2022-09-09T16:18:39;8.52;;;1.45;;
45392;SDS011;31129;44.810;10.334;2022-09-09T16:21:06;5.80;;;1.83;;
45392;SDS011;31129;44.810;10.334;2022-09-09T16:23:33;8.63;;;2.25;;
45392;SDS011;31129;44.810;10.334;2022-09-09T16:25:59;9.67;;;2.40;;
45392;SDS011;31129;44.810;10.334;2022-09-09T16:28:26;10.98;;;1.90;;
45392;SDS011;31129;44.810;10.334;2022-09-09T16:30:54;13.38;;;2.28;;
45392;SDS011;31129;44.810;10.334;2022-09-09T16:33:20;11.63;;;2.20;;
45392;SDS011;31129;44.810;10.334;2022-09-09T16:35:46;8.50;;;1.80;;
45392;SDS011;31129;44.810;10.334;2022-09-09T16:38:11;6.88;;;2.20;;
45392;SDS011;31129;44.810;10.334;2022-09-09T16:40:37;10.18;;;2.53;;
45392;SDS011;31129;44.810;10.334;2022-09-09T16:43:03;10.40;;;2.53;;
45392;SDS011;31129;44.810;10.334;2022-09-09T16:47:57;8.35;;;2.38;;
45392;SDS011;31129;44.810;10.334;2022-09-09T16:50:22;5.38;;;2.05;;
45392;SDS011;31129;44.810;10.334;2022-09-09T16:52:48;11.15;;;2.58;;
45392;SDS011;31129;44.810;10.334;2022-09-09T16:55:13;12.00;;;2.60;;
45392;SDS011;31129;44.810;10.334;2022-09-09T16:57:39;11.85;;;2.42;;
45392;SDS011;31129;44.810;10.334;2022-09-09T17:00:04;9.05;;;2.78;;
45392;SDS011;31129;44.810;10.334;2022-09-09T17:02:32;8.70;;;2.63;;
45392;SDS011;31129;44.810;10.334;2022-09-09T17:04:58;9.10;;;2.65;;
45392;SDS011;31129;44.810;10.334;2022-09-09T17:07:24;11.20;;;2.97;;
45392;SDS011;31129;44.810;10.334;2022-09-09T17:09:50;11.27;;;2.45;;
45392;SDS011;31129;44.810;10.334;2022-09-09T17:12:15;12.35;;;2.88;;
45392;SDS011;31129;44.810;10.334;2022-09-09T17:14:41;8.88;;;2.53;;
45392;SDS011;31129;44.810;10.334;2022-09-09T17:17:07;8.45;;;2.58;;